Time;durP1;ratioP1;P1;durP2;ratioP2;P2;SDS_P1;SDS_P2;PMS_P1;PMS_P2;Temp;Humidity;BMP_temperature;BMP_pressure;BME280_temperature;BME280_humidity;BME280_pressure;Samples;Min_cycle;Max_cycle;Signal;HPM_P1;HPM_P2
2021/12/24 00:39:13;;;;;;;31.30;19.80;;;;;;;-1.93;82.92;97068.17;421132;1310;108929;-41
2021/12/24 00:49:20;;;;;;;36.70;20.60;;;;;;;-1.79;82.89;97068.70;421198;1312;98124;-42
2021/12/24 00:59:24;;;;;;;51.40;23.70;;;;;;;-1.75;82.82;97078.20;420201;1311;111166;-41
2021/12/24 01:09:27;;;;;;;34.70;20.00;;;;;;;-1.78;83.13;97058.94;421163;1310;97990;-40
2021/12/24 01:19:32;;;;;;;29.50;18.50;;;;;;;-1.75;83.09;97038.47;421362;1311;97555;-40
2021/12/24 01:49:46;;;;;;;24.90;16.40;;;;;;;-1.64;83.65;96985.67;421334;1310;98362;-40
2021/12/24 01:59:52;;;;;;;32.10;18.50;;;;;;;-1.63;83.93;96970.81;421335;1312;108002;-40
2021/12/24 02:09:56;;;;;;;38.10;20.30;;;;;;;-1.69;84.35;96959.15;421367;1310;96739;-40
2021/12/24 02:30:22;;;;;;;26.40;15.90;;;;;;;-1.61;84.24;96937.33;421593;1312;108907;-43
2021/12/24 02:40:25;;;;;;;25.60;15.60;;;;;;;-1.56;84.69;96916.65;421440;1312;98178;-39
2021/12/24 03:00:58;;;;;;;36.50;18.20;;;;;;;-1.46;85.15;96894.05;420658;1312;109053;-40
2021/12/24 03:11:02;;;;;;;41.10;19.20;;;;;;;-1.49;85.03;96884.59;420487;1312;97977;-42
2021/12/24 03:21:11;;;;;;;28.60;19.70;;;;;;;-1.40;85.11;96878.72;421454;1309;97948;-40
2021/12/24 03:31:15;;;;;;;25.50;16.90;;;;;;;-1.29;85.43;96873.42;421320;1312;108889;-40
2021/12/24 03:41:19;;;;;;;26.20;14.20;;;;;;;-1.13;85.27;96874.68;421465;1312;97947;-39
2021/12/24 03:51:33;;;;;;;18.50;12.50;;;;;;;-1.02;85.52;96863.79;420386;1312;108952;-41
2021/12/24 04:01:37;;;;;;;33.10;20.50;;;;;;;-1.01;85.57;96849.94;421524;1313;97013;-41
2021/12/24 04:11:41;;;;;;;33.70;19.50;;;;;;;-1.05;85.83;96847.36;421489;1315;98042;-40
2021/12/24 05:12:56;;;;;;;23.10;15.20;;;;;;;-0.63;86.47;96823.64;421474;1315;111233;-40
2021/12/24 05:23:00;;;;;;;21.00;14.70;;;;;;;-0.54;86.33;96821.09;421510;1313;108920;-39
2021/12/24 05:33:04;;;;;;;22.60;14.70;;;;;;;-0.44;86.32;96824.61;421696;1309;97971;-41
2021/12/24 05:43:08;;;;;;;23.50;16.70;;;;;;;-0.35;86.47;96825.64;420436;1313;109010;-40
2021/12/24 05:53:12;;;;;;;33.60;20.20;;;;;;;-0.29;86.48;96815.11;421915;1312;98736;-41
2021/12/24 06:03:18;;;;;;;36.60;23.30;;;;;;;-0.31;86.73;96828.02;421489;1315;97919;-40
2021/12/24 06:23:28;;;;;;;28.70;20.60;;;;;;;-0.14;86.58;96802.67;421598;1313;98317;-41
2021/12/24 06:33:32;;;;;;;28.40;19.50;;;;;;;0.01;86.64;96810.20;421565;1310;111012;-40
2021/12/24 06:43:36;;;;;;;26.20;16.00;;;;;;;0.14;86.88;96819.89;421330;1316;108736;-39
2021/12/24 06:53:40;;;;;;;34.30;21.60;;;;;;;0.25;86.96;96810.61;421529;1313;97923;-40
2021/12/24 07:13:49;;;;;;;38.50;22.90;;;;;;;0.27;87.03;96807.64;417551;1315;5660550;-41
2021/12/24 07:23:56;;;;;;;45.30;28.60;;;;;;;0.31;87.16;96807.02;421501;1312;110819;-40
2021/12/24 07:34:00;;;;;;;33.10;23.00;;;;;;;0.40;86.96;96803.83;421536;1316;108860;-40
2021/12/24 07:44:04;;;;;;;36.40;22.50;;;;;;;0.53;87.12;96813.20;421508;1315;97907;-40
2021/12/24 07:54:08;;;;;;;37.00;23.60;;;;;;;0.64;87.15;96801.11;421522;1315;109742;-41
2021/12/24 08:04:14;;;;;;;40.20;23.00;;;;;;;0.73;87.27;96794.65;421493;1315;97939;-41
2021/12/24 08:14:18;;;;;;;47.70;29.30;;;;;;;0.76;87.58;96787.79;421345;1316;111547;-41
2021/12/24 08:24:21;;;;;;;46.70;27.10;;;;;;;0.72;87.46;96781.21;421534;1316;97947;-41
2021/12/24 08:34:27;;;;;;;37.90;25.30;;;;;;;0.80;87.38;96768.98;421400;1315;97977;-40
2021/12/24 08:44:32;;;;;;;27.60;19.30;;;;;;;0.98;87.37;96770.54;421359;1315;111691;-40
2021/12/24 08:54:37;;;;;;;24.20;16.80;;;;;;;1.15;87.49;96758.40;420260;1317;108722;-38
2021/12/24 09:04:40;;;;;;;21.80;14.60;;;;;;;1.33;87.69;96762.75;420533;1312;97958;-40
2021/12/24 09:14:44;;;;;;;19.20;12.90;;;;;;;1.50;87.78;96762.41;420662;1315;109301;-41
2021/12/24 09:24:52;;;;;;;32.70;19.70;;;;;;;1.58;87.97;96743.20;420739;1315;97995;-41
2021/12/24 09:34:55;;;;;;;27.50;16.90;;;;;;;1.56;87.93;96738.48;420840;1312;97848;-40
2021/12/24 09:44:59;;;;;;;28.50;17.50;;;;;;;1.59;87.96;96725.27;420788;1312;97938;-41
2021/12/24 09:55:06;;;;;;;31.50;19.10;;;;;;;1.62;87.86;96727.95;420512;1313;109097;-39
2021/12/24 10:05:34;;;;;;;25.20;18.30;;;;;;;1.72;87.82;96722.11;420396;1313;98283;-41
2021/12/24 10:15:50;;;;;;;34.80;19.80;;;;;;;1.76;87.97;96702.89;420453;1312;107901;-41
2021/12/24 10:26:10;;;;;;;31.60;19.90;;;;;;;1.79;87.96;96704.16;420819;1313;98057;-42
2021/12/24 10:36:14;;;;;;;32.30;21.30;;;;;;;1.76;88.41;96707.35;420653;1311;98125;-41
2021/12/24 10:46:22;;;;;;;22.30;16.80;;;;;;;1.82;88.28;96695.95;420574;1314;97968;-40
2021/12/24 10:56:28;;;;;;;27.00;17.80;;;;;;;2.04;88.22;96680.45;420492;1313;107835;-38
2021/12/24 11:06:33;;;;;;;25.40;17.60;;;;;;;2.17;88.24;96668.56;420538;1310;98021;-40
2021/12/24 11:26:52;;;;;;;27.50;18.30;;;;;;;2.25;88.45;96663.29;420650;1310;97533;-40
2021/12/24 11:36:56;;;;;;;30.70;16.50;;;;;;;2.33;88.53;96643.81;420348;1312;111378;-40
2021/12/24 11:47:00;;;;;;;26.40;16.70;;;;;;;2.51;88.63;96630.55;420491;1312;108864;-41
2021/12/24 11:57:15;;;;;;;32.60;22.30;;;;;;;2.60;88.66;96621.42;420592;1312;97575;-40
2021/12/24 12:07:19;;;;;;;34.90;20.80;;;;;;;2.56;88.84;96607.71;420834;1309;108932;-40
2021/12/24 12:17:24;;;;;;;46.80;26.10;;;;;;;2.62;89.14;96594.70;420723;1309;97940;-41
2021/12/24 12:27:31;;;;;;;33.40;20.30;;;;;;;2.67;88.93;96577.98;420747;1310;97823;-40
2021/12/24 12:37:44;;;;;;;20.80;15.60;;;;;;;2.69;89.02;96574.02;420420;1312;107888;-41
2021/12/24 12:47:56;;;;;;;33.40;20.50;;;;;;;2.77;89.02;96593.00;420715;1309;98230;-40
2021/12/24 12:58:20;;;;;;;24.50;14.80;;;;;;;2.82;89.04;96596.35;420809;1310;109730;-41
2021/12/24 13:08:26;;;;;;;31.10;16.70;;;;;;;2.83;89.10;96596.52;420700;1313;107849;-41
2021/12/24 13:18:35;;;;;;;22.80;14.70;;;;;;;2.89;89.41;96604.03;420615;1312;97782;-41
2021/12/24 13:29:00;;;;;;;31.00;19.30;;;;;;;2.93;89.40;96610.42;420687;1312;108005;-42
2021/12/24 13:39:07;;;;;;;30.00;19.80;;;;;;;2.97;89.55;96605.64;420797;1311;97658;-42
2021/12/24 13:49:22;;;;;;;23.90;17.00;;;;;;;3.06;89.65;96595.01;420692;1312;110932;-40
2021/12/24 13:59:26;;;;;;;28.50;15.90;;;;;;;3.15;89.84;96592.00;420590;1311;108397;-40
2021/12/24 14:09:32;;;;;;;25.20;15.20;;;;;;;3.23;89.91;96593.71;420727;1310;97939;-39
2021/12/24 14:19:47;;;;;;;23.60;15.80;;;;;;;3.30;90.05;96603.52;420766;1310;108995;-40
2021/12/24 14:40:00;;;;;;;23.00;15.40;;;;;;;3.37;90.11;96602.19;420605;1312;111154;-40
2021/12/24 14:50:07;;;;;;;27.50;16.70;;;;;;;3.45;90.27;96595.23;420859;1312;109080;-42
2021/12/24 15:00:15;;;;;;;23.20;15.20;;;;;;;3.49;90.35;96586.16;420674;1310;97936;-40
2021/12/24 15:10:18;;;;;;;25.10;15.40;;;;;;;3.52;90.27;96579.50;416767;1310;5385134;-38
2021/12/24 15:30:26;;;;;;;26.00;14.90;;;;;;;3.65;90.58;96585.14;420716;1310;111355;-39
2021/12/24 15:40:35;;;;;;;23.10;14.30;;;;;;;3.73;90.72;96582.89;420969;1312;108802;-41
2021/12/24 15:50:45;;;;;;;26.50;15.90;;;;;;;3.76;90.72;96571.40;421247;1311;97545;-40
2021/12/24 16:00:51;;;;;;;21.00;14.00;;;;;;;3.80;90.82;96567.95;421173;1310;109035;-42
2021/12/24 16:10:54;;;;;;;30.00;14.40;;;;;;;3.85;90.89;96561.63;421340;1309;97928;-41
2021/12/24 16:20:58;;;;;;;25.20;12.40;;;;;;;3.90;91.12;96543.34;421258;1310;111144;-41
2021/12/24 16:31:03;;;;;;;20.00;11.50;;;;;;;3.94;91.16;96539.80;420488;1312;109087;-40
2021/12/24 16:41:06;;;;;;;18.10;12.70;;;;;;;3.99;91.16;96540.73;420644;1312;97620;-42
2021/12/24 16:51:10;;;;;;;14.50;10.70;;;;;;;4.09;91.26;96540.76;421275;1310;108968;-40
2021/12/24 17:01:14;;;;;;;17.00;10.80;;;;;;;4.13;91.26;96525.02;421268;1311;97933;-41
2021/12/24 17:21:24;;;;;;;16.10;10.00;;;;;;;4.20;91.36;96521.77;421399;1309;109847;-40
2021/12/24 17:31:28;;;;;;;24.70;13.10;;;;;;;4.23;91.55;96522.13;420431;1312;97973;-40
2021/12/24 17:41:32;;;;;;;19.40;10.80;;;;;;;4.22;91.33;96528.45;420395;1312;109050;-40
2021/12/24 17:51:36;;;;;;;18.80;10.60;;;;;;;4.21;91.40;96540.77;420212;1312;97588;-41
2021/12/24 18:01:40;;;;;;;10.40;6.70;;;;;;;4.11;91.63;96611.71;420742;1312;111409;-42
2021/12/24 18:11:45;;;;;;;9.80;6.00;;;;;;;3.80;91.38;96634.38;421229;1312;108926;-40
2021/12/24 18:21:49;;;;;;;7.20;5.40;;;;;;;3.47;91.40;96665.39;421157;1310;97961;-41
2021/12/24 18:31:53;;;;;;;8.30;5.40;;;;;;;3.14;91.67;96686.56;421224;1310;109077;-41
2021/12/24 18:41:58;;;;;;;8.60;4.50;;;;;;;2.78;91.77;96702.96;421089;1310;98176;-41
2021/12/24 18:52:03;;;;;;;8.60;4.70;;;;;;;2.40;91.92;96714.92;421283;1312;111858;-41
2021/12/24 19:02:06;;;;;;;13.80;7.70;;;;;;;2.00;91.74;96753.85;421109;1312;108799;-42
2021/12/24 19:12:11;;;;;;;14.70;6.70;;;;;;;1.62;91.65;96790.40;421269;1312;97559;-43
2021/12/24 19:22:15;;;;;;;25.40;13.30;;;;;;;1.33;91.72;96796.95;421114;1312;108910;-42
2021/12/24 19:32:19;;;;;;;14.90;6.80;;;;;;;1.13;91.96;96826.70;421147;1309;98481;-40
2021/12/24 19:42:23;;;;;;;24.60;9.50;;;;;;;0.97;91.87;96853.03;421348;1309;111114;-39
2021/12/24 19:52:26;;;;;;;41.10;16.30;;;;;;;0.89;91.98;96872.52;421068;1309;108789;-40
2021/12/24 20:02:30;;;;;;;26.20;11.00;;;;;;;0.83;91.77;96896.55;420534;1312;97948;-40
2021/12/24 20:12:35;;;;;;;13.20;8.10;;;;;;;0.72;91.88;96925.23;421207;1310;109212;-42
2021/12/24 20:22:40;;;;;;;10.20;5.80;;;;;;;0.55;91.84;96942.29;421452;1309;98077;-41
2021/12/24 20:32:44;;;;;;;9.80;6.50;;;;;;;0.52;91.61;96956.84;421167;1312;97949;-41
2021/12/24 20:42:47;;;;;;;6.70;4.60;;;;;;;0.50;91.69;96975.48;421174;1309;106967;-40
2021/12/24 21:02:55;;;;;;;16.20;7.30;;;;;;;0.41;91.80;97019.34;421198;1312;112195;-42
2021/12/24 21:12:59;;;;;;;8.70;6.00;;;;;;;0.37;91.82;97024.77;421253;1310;109078;-41
2021/12/24 21:33:08;;;;;;;16.50;8.60;;;;;;;0.31;91.81;97058.79;421404;1310;108979;-41
2021/12/24 21:43:12;;;;;;;15.50;8.10;;;;;;;0.27;91.62;97055.23;421246;1309;98051;-41
2021/12/24 21:53:17;;;;;;;10.50;6.70;;;;;;;0.27;91.41;97069.55;421338;1309;110956;-41
2021/12/24 22:13:39;;;;;;;31.40;16.20;;;;;;;0.32;91.40;97105.46;421711;1312;97949;-41
2021/12/24 22:23:45;;;;;;;8.90;5.70;;;;;;;0.31;91.50;97129.58;421686;1310;108070;-39
2021/12/24 22:33:48;;;;;;;8.10;5.00;;;;;;;0.32;91.33;97138.42;421700;1312;99496;-41
2021/12/24 22:43:53;;;;;;;8.20;6.50;;;;;;;0.24;91.53;97145.73;421544;1310;111077;-40
2021/12/24 22:53:56;;;;;;;8.60;5.60;;;;;;;0.18;91.62;97152.00;421461;1312;98292;-41
2021/12/24 23:04:00;;;;;;;12.30;6.80;;;;;;;0.17;91.48;97175.44;421414;1312;97600;-41
2021/12/24 23:24:13;;;;;;;17.70;9.40;;;;;;;0.11;91.31;97202.52;421472;1313;108809;-40
2021/12/24 23:34:18;;;;;;;16.70;10.60;;;;;;;0.06;91.47;97225.34;421656;1310;98146;-41
2021/12/24 23:44:26;;;;;;;17.00;11.10;;;;;;;-0.09;91.36;97235.05;421609;1312;108889;-41
2021/12/24 23:54:30;;;;;;;14.10;8.40;;;;;;;-0.19;91.40;97260.89;421635;1309;97939;-41
